Time;durP1;ratioP1;P1;durP2;ratioP2;P2;SDS_P1;SDS_P2;PMS_P1;PMS_P2;Temp;Humidity;BMP_temperature;BMP_pressure;BME280_temperature;BME280_humidity;BME280_pressure;Samples;Min_cycle;Max_cycle;Signal;HPM_P1;HPM_P2
2022/04/25 00:00:29;;;;;;;8.07;4.30;;;9.80;99.90;;;;;;5060214;28;20215;-54
2022/04/25 00:02:57;;;;;;;9.30;4.13;;;9.70;99.90;;;;;;5055991;28;20200;-54
2022/04/25 00:05:25;;;;;;;6.33;4.83;;;9.80;99.90;;;;;;5063389;28;20206;-51
2022/04/25 00:07:52;;;;;;;9.80;4.80;;;9.90;99.90;;;;;;5057555;28;20238;-51
2022/04/25 00:10:19;;;;;;;8.47;5.17;;;9.80;99.90;;;;;;5058018;28;20305;-52
2022/04/25 00:12:46;;;;;;;6.97;4.43;;;9.80;99.90;;;;;;5060766;28;20312;-52
2022/04/25 00:15:13;;;;;;;8.53;4.60;;;9.70;99.90;;;;;;5062907;28;20210;-54
2022/04/25 00:17:40;;;;;;;7.57;4.50;;;9.60;99.90;;;;;;5060867;28;20285;-54
2022/04/25 00:20:08;;;;;;;6.10;4.93;;;9.70;99.90;;;;;;5063229;28;20247;-52
2022/04/25 00:22:35;;;;;;;9.87;5.30;;;9.60;99.90;;;;;;5064049;28;20233;-53
2022/04/25 00:25:02;;;;;;;7.10;4.43;;;9.60;99.90;;;;;;5059962;28;20190;-51
2022/04/25 00:27:30;;;;;;;7.57;5.13;;;9.70;99.90;;;;;;5063305;28;20250;-53
2022/04/25 00:29:57;;;;;;;7.13;4.57;;;9.80;99.90;;;;;;5056815;28;20242;-53
2022/04/25 00:32:24;;;;;;;8.73;5.40;;;9.60;99.90;;;;;;5062960;28;20264;-52
2022/04/25 00:34:51;;;;;;;10.77;5.10;;;9.60;99.90;;;;;;5060746;28;20292;-53
2022/04/25 00:37:17;;;;;;;6.90;4.77;;;9.60;99.90;;;;;;5064973;28;20312;-52
2022/04/25 00:39:44;;;;;;;7.57;4.90;;;9.50;99.90;;;;;;5064809;28;20217;-52
2022/04/25 00:42:11;;;;;;;6.40;4.93;;;9.60;99.90;;;;;;5060040;28;20233;-51
2022/04/25 00:44:38;;;;;;;5.83;4.70;;;9.50;99.90;;;;;;5066693;28;20206;-51
2022/04/25 00:47:07;;;;;;;7.20;5.00;;;9.50;99.90;;;;;;5061529;28;20622;-53
2022/04/25 00:49:34;;;;;;;7.17;5.20;;;9.30;99.90;;;;;;5060508;28;20202;-54
2022/04/25 00:52:01;;;;;;;9.53;5.17;;;9.30;99.90;;;;;;5068413;28;20230;-51
2022/04/25 00:54:28;;;;;;;12.00;4.60;;;9.50;99.90;;;;;;5062273;28;20221;-52
2022/04/25 00:56:55;;;;;;;9.63;5.27;;;9.50;99.90;;;;;;5064705;28;20212;-51
2022/04/25 00:59:24;;;;;;;7.50;5.63;;;9.40;99.90;;;;;;5061554;28;20194;-52
2022/04/25 01:01:53;;;;;;;9.13;5.43;;;9.40;99.90;;;;;;5062107;28;20603;-52
2022/04/25 01:04:21;;;;;;;8.40;5.13;;;9.30;99.90;;;;;;5062505;28;20627;-53
2022/04/25 01:06:48;;;;;;;7.57;5.00;;;9.20;99.90;;;;;;5067687;28;20252;-52
2022/04/25 01:09:15;;;;;;;9.73;5.23;;;9.20;99.90;;;;;;5061051;28;20205;-51
2022/04/25 01:11:42;;;;;;;14.13;5.87;;;9.20;99.90;;;;;;5059699;28;20228;-52
2022/04/25 01:14:13;;;;;;;9.43;5.70;;;9.20;99.90;;;;;;5060917;28;20213;-53
2022/04/25 01:16:40;;;;;;;9.10;5.57;;;9.20;99.90;;;;;;5061477;28;20306;-52
2022/04/25 01:19:07;;;;;;;10.43;5.30;;;9.00;99.90;;;;;;5058420;28;20201;-51
2022/04/25 01:22:11;;;;;;;8.57;5.97;;;9.10;99.90;;;;;;5061787;28;20274;-52
2022/04/25 01:27:26;;;;;;;11.27;5.90;;;9.20;99.90;;;;;;5019086;28;20278;-53
2022/04/25 01:29:54;;;;;;;11.20;5.70;;;9.30;99.90;;;;;;5014774;28;20288;-52
2022/04/25 01:32:23;;;;;;;9.47;5.97;;;9.30;99.90;;;;;;5019871;28;20664;-54
2022/04/25 01:34:50;;;;;;;7.70;5.80;;;9.20;99.90;;;;;;5022030;28;20252;-53
2022/04/25 01:37:19;;;;;;;6.87;5.40;;;9.10;99.90;;;;;;5022036;28;20303;-52
2022/04/25 01:39:51;;;;;;;8.43;5.93;;;8.90;99.90;;;;;;5019662;28;20203;-53
2022/04/25 01:42:20;;;;;;;9.93;6.23;;;8.90;99.90;;;;;;5020885;28;20234;-53
2022/04/25 01:44:47;;;;;;;8.30;6.00;;;8.90;99.90;;;;;;5017003;28;20267;-54
2022/04/25 01:47:14;;;;;;;6.67;5.97;;;8.80;99.90;;;;;;5016930;28;20271;-55
2022/04/25 01:49:41;;;;;;;8.90;6.40;;;8.90;99.90;;;;;;5016821;28;20207;-52
2022/04/25 01:52:29;;;;;;;7.80;5.87;;;8.80;99.90;;;;;;5018952;28;20636;-53
2022/04/25 01:54:56;;;;;;;11.67;6.30;;;8.80;99.90;;;;;;5018234;28;20288;-50
2022/04/25 01:57:23;;;;;;;9.67;6.90;;;8.70;99.90;;;;;;5019203;28;20214;-51
2022/04/25 01:59:51;;;;;;;9.23;5.70;;;8.70;99.90;;;;;;5057972;28;20693;-53
2022/04/25 02:02:19;;;;;;;9.00;6.30;;;8.70;99.90;;;;;;5061134;28;20243;-54
2022/04/25 02:04:46;;;;;;;8.97;6.33;;;8.70;99.90;;;;;;5059221;28;20278;-51
2022/04/25 02:07:13;;;;;;;10.07;6.77;;;8.70;99.90;;;;;;5061631;28;20209;-52
2022/04/25 02:09:40;;;;;;;7.67;5.97;;;8.70;99.90;;;;;;5054006;28;20211;-51
2022/04/25 02:12:07;;;;;;;7.90;6.80;;;8.60;99.90;;;;;;5061536;28;20662;-54
2022/04/25 02:14:34;;;;;;;9.60;7.10;;;8.60;99.90;;;;;;5054145;28;20227;-52
2022/04/25 02:17:02;;;;;;;9.47;6.00;;;8.60;99.90;;;;;;5057850;28;20818;-53
2022/04/25 02:19:35;;;;;;;12.77;6.60;;;8.70;99.90;;;;;;5054268;28;20252;-53
2022/04/25 02:22:02;;;;;;;9.77;6.33;;;8.70;99.90;;;;;;5060215;28;20274;-53
2022/04/25 02:24:29;;;;;;;10.17;6.23;;;8.70;99.90;;;;;;5060837;28;20224;-54
2022/04/25 02:26:56;;;;;;;8.80;6.77;;;8.70;99.90;;;;;;5061483;28;20255;-54
2022/04/25 02:29:23;;;;;;;8.20;6.40;;;8.50;99.90;;;;;;5060513;28;20272;-53
2022/04/25 02:31:50;;;;;;;12.53;6.83;;;8.40;99.90;;;;;;5062248;28;20230;-55
2022/04/25 02:34:17;;;;;;;7.40;5.77;;;8.50;99.90;;;;;;5058675;28;20237;-53
2022/04/25 02:36:45;;;;;;;9.13;6.67;;;8.50;99.90;;;;;;5061716;28;20640;-52
2022/04/25 02:39:11;;;;;;;10.53;7.07;;;8.50;99.90;;;;;;5058124;28;20245;-52
2022/04/25 02:41:38;;;;;;;7.90;6.20;;;8.40;99.90;;;;;;5061973;28;20286;-53
2022/04/25 02:44:05;;;;;;;10.03;6.50;;;8.40;99.90;;;;;;5060962;28;20290;-53
2022/04/25 02:46:32;;;;;;;9.60;7.17;;;8.40;99.90;;;;;;5058601;28;20470;-53
2022/04/25 02:48:58;;;;;;;11.37;6.27;;;8.30;99.90;;;;;;5058411;28;20209;-52
2022/04/25 02:51:25;;;;;;;13.53;8.13;;;8.30;99.90;;;;;;5054151;28;20264;-56
2022/04/25 02:53:52;;;;;;;7.80;6.23;;;8.50;99.90;;;;;;5056192;28;20569;-52
2022/04/25 02:56:19;;;;;;;12.87;7.30;;;8.50;99.90;;;;;;5059763;28;20247;-52
2022/04/25 02:58:46;;;;;;;10.30;7.03;;;8.50;99.90;;;;;;5061194;28;20405;-51
2022/04/25 03:01:13;;;;;;;8.60;6.80;;;8.40;99.90;;;;;;5059344;28;20238;-54
2022/04/25 03:03:40;;;;;;;8.03;6.30;;;8.50;99.90;;;;;;5059443;28;20202;-52
2022/04/25 03:06:11;;;;;;;8.93;6.70;;;8.40;99.90;;;;;;5059193;28;20655;-54
2022/04/25 03:08:39;;;;;;;13.23;7.43;;;8.30;99.90;;;;;;5061972;28;20234;-53
2022/04/25 03:11:09;;;;;;;9.10;6.60;;;8.20;99.90;;;;;;5061067;28;20210;-52
2022/04/25 03:13:38;;;;;;;10.87;6.93;;;8.20;99.90;;;;;;5058522;28;20196;-53
2022/04/25 03:16:06;;;;;;;10.07;7.70;;;8.20;99.90;;;;;;5060696;28;20250;-53
2022/04/25 03:18:34;;;;;;;8.73;6.67;;;8.30;99.90;;;;;;5058701;28;20250;-52
2022/04/25 03:21:01;;;;;;;10.73;7.40;;;8.50;99.90;;;;;;5058621;28;20197;-51
2022/04/25 03:23:29;;;;;;;11.70;6.93;;;8.40;99.90;;;;;;5061736;28;20225;-54
2022/04/25 03:25:56;;;;;;;11.30;7.20;;;8.50;99.90;;;;;;5058427;28;20306;-52
2022/04/25 03:28:23;;;;;;;10.37;7.00;;;8.50;99.90;;;;;;5057795;28;22349;-53
2022/04/25 03:30:50;;;;;;;11.90;7.37;;;8.40;99.90;;;;;;5063015;28;20263;-51
2022/04/25 03:33:19;;;;;;;13.10;7.00;;;8.40;99.90;;;;;;5060571;28;20230;-53
2022/04/25 03:35:46;;;;;;;9.30;7.20;;;8.20;99.90;;;;;;5059270;28;20654;-52
2022/04/25 03:38:18;;;;;;;13.33;7.83;;;8.40;99.90;;;;;;5062807;28;20222;-55
2022/04/25 03:40:45;;;;;;;10.77;7.80;;;8.40;99.90;;;;;;5059130;28;20209;-54
2022/04/25 03:43:17;;;;;;;13.30;7.83;;;8.50;99.90;;;;;;5062100;28;20237;-52
2022/04/25 03:45:44;;;;;;;10.70;7.17;;;8.70;99.90;;;;;;5056747;28;20668;-54
2022/04/25 03:48:11;;;;;;;11.10;7.43;;;8.50;99.90;;;;;;5058929;28;20597;-53
2022/04/25 03:50:38;;;;;;;13.00;7.40;;;8.50;99.90;;;;;;5055451;28;22499;-54
2022/04/25 03:53:10;;;;;;;12.07;6.80;;;8.40;99.90;;;;;;5057025;28;20200;-51
2022/04/25 03:58:22;;;;;;;11.03;7.13;;;8.40;99.90;;;;;;5051110;28;20243;-52
2022/04/25 04:00:50;;;;;;;10.40;7.43;;;8.40;99.90;;;;;;5061143;28;20226;-54
2022/04/25 04:03:18;;;;;;;8.57;6.93;;;8.40;99.90;;;;;;5051683;28;20327;-54
2022/04/25 04:05:50;;;;;;;10.77;7.90;;;8.40;99.90;;;;;;5058974;28;20248;-54
2022/04/25 04:08:17;;;;;;;13.10;7.40;;;8.20;99.90;;;;;;5060787;28;20195;-52
2022/04/25 04:10:44;;;;;;;10.70;8.07;;;8.20;99.90;;;;;;5054804;28;20233;-52
2022/04/25 04:13:11;;;;;;;12.20;7.27;;;8.20;99.90;;;;;;5060480;28;20557;-52
2022/04/25 04:15:39;;;;;;;10.23;7.63;;;8.30;99.90;;;;;;5058641;28;20245;-52
2022/04/25 04:18:06;;;;;;;10.03;7.37;;;8.20;99.90;;;;;;5056147;28;20220;-51
2022/04/25 04:20:33;;;;;;;11.50;7.13;;;8.00;99.90;;;;;;5057649;28;20248;-53
2022/04/25 04:23:01;;;;;;;10.67;7.50;;;8.00;99.90;;;;;;5056176;28;20706;-52
2022/04/25 04:25:28;;;;;;;12.20;8.07;;;8.00;99.90;;;;;;5059529;28;20240;-51
2022/04/25 04:27:54;;;;;;;9.93;7.73;;;8.00;99.90;;;;;;5060116;28;20651;-53
2022/04/25 04:30:21;;;;;;;12.10;7.63;;;8.10;99.90;;;;;;5061959;28;20248;-51
2022/04/25 04:32:50;;;;;;;11.87;7.43;;;8.10;99.90;;;;;;5062454;28;20621;-52
2022/04/25 04:36:17;;;;;;;15.07;8.67;;;7.90;99.90;;;;;;5063658;28;20615;-54
2022/04/25 04:38:05;;;;;;;14.77;8.13;;;8.00;99.90;;;;;;5052561;28;20859;-56
2022/04/25 04:40:33;;;;;;;11.73;8.37;;;8.00;99.90;;;;;;5061714;28;20563;-54
2022/04/25 04:43:00;;;;;;;14.43;8.90;;;8.00;99.90;;;;;;5063674;28;20555;-52
2022/04/25 04:45:27;;;;;;;13.50;7.87;;;8.10;99.90;;;;;;5063360;28;21300;-53
2022/04/25 04:47:54;;;;;;;12.77;8.37;;;8.20;99.90;;;;;;5060214;28;20911;-53
2022/04/25 04:50:22;;;;;;;11.70;8.27;;;8.00;99.90;;;;;;5064243;28;20282;-53
2022/04/25 04:52:57;;;;;;;13.10;8.17;;;8.10;99.90;;;;;;5065023;28;20233;-54
2022/04/25 04:55:24;;;;;;;14.40;8.47;;;8.00;99.90;;;;;;5061472;28;20219;-52
2022/04/25 04:57:55;;;;;;;12.57;8.83;;;8.00;99.90;;;;;;5052288;28;20625;-52
2022/04/25 05:00:23;;;;;;;14.00;9.50;;;7.90;99.90;;;;;;5052571;28;20222;-51
2022/04/25 05:02:51;;;;;;;13.90;7.93;;;8.10;99.90;;;;;;5051483;28;20667;-53
2022/04/25 05:05:18;;;;;;;13.77;8.73;;;8.10;99.90;;;;;;5064570;28;20592;-51
2022/04/25 05:07:46;;;;;;;12.00;7.50;;;8.10;99.90;;;;;;5064765;28;20747;-52
2022/04/25 05:10:13;;;;;;;15.27;9.33;;;8.00;99.90;;;;;;5060848;28;20267;-52
2022/04/25 05:12:49;;;;;;;11.67;8.10;;;8.00;99.90;;;;;;5062011;28;20678;-52
2022/04/25 05:15:17;;;;;;;13.73;9.10;;;8.10;99.90;;;;;;5057569;28;20579;-52
2022/04/25 05:17:48;;;;;;;12.03;8.53;;;8.20;99.90;;;;;;5062104;28;20210;-53
2022/04/25 05:20:16;;;;;;;15.57;8.87;;;8.30;99.90;;;;;;5060510;28;20639;-52
2022/04/25 05:22:44;;;;;;;15.33;8.97;;;8.20;99.90;;;;;;5060033;28;20230;-53
2022/04/25 05:25:14;;;;;;;13.80;9.17;;;8.20;99.90;;;;;;5062133;28;20811;-53
2022/04/25 05:27:42;;;;;;;16.13;9.10;;;8.10;99.90;;;;;;5065379;28;20238;-54
2022/04/25 05:30:10;;;;;;;14.03;9.00;;;8.30;99.90;;;;;;5062077;28;20649;-52
2022/04/25 05:32:57;;;;;;;10.93;8.70;;;8.40;99.90;;;;;;5060860;28;20205;-53
2022/04/25 05:35:26;;;;;;;12.00;8.80;;;8.30;99.90;;;;;;5063474;28;20203;-54
2022/04/25 05:37:54;;;;;;;12.73;9.17;;;8.40;99.90;;;;;;5064650;28;20632;-54
2022/04/25 05:40:22;;;;;;;13.43;8.97;;;8.30;99.90;;;;;;5062917;28;20620;-54
2022/04/25 05:42:50;;;;;;;14.13;9.40;;;8.40;99.90;;;;;;5050954;28;20225;-52
2022/04/25 05:45:22;;;;;;;15.37;10.30;;;8.40;99.90;;;;;;5053804;28;20623;-51
2022/04/25 05:47:51;;;;;;;12.67;9.37;;;8.50;99.90;;;;;;5048232;28;20287;-52
2022/04/25 05:53:04;;;;;;;15.90;9.87;;;8.50;99.90;;;;;;5059275;28;20504;-50
2022/04/25 05:55:31;;;;;;;13.60;9.63;;;8.60;99.90;;;;;;5058188;28;20203;-51
2022/04/25 05:58:03;;;;;;;13.23;10.13;;;8.50;99.90;;;;;;5057938;28;20211;-55
2022/04/25 06:00:30;;;;;;;16.03;10.50;;;8.60;99.90;;;;;;5054441;28;20588;-54
2022/04/25 06:02:57;;;;;;;16.30;9.87;;;8.50;99.90;;;;;;5056272;28;20252;-52
2022/04/25 06:05:24;;;;;;;18.10;10.57;;;8.60;99.90;;;;;;5056663;28;20718;-51
2022/04/25 06:07:52;;;;;;;14.97;9.70;;;8.70;99.90;;;;;;5050361;28;20279;-51
2022/04/25 06:10:20;;;;;;;13.40;9.43;;;8.60;99.90;;;;;;5058942;28;20617;-52
2022/04/25 06:12:49;;;;;;;15.63;10.43;;;8.70;99.90;;;;;;5057922;28;21648;-54
2022/04/25 06:15:17;;;;;;;14.93;10.90;;;8.80;99.90;;;;;;5056315;28;20210;-53
2022/04/25 06:17:49;;;;;;;13.43;10.40;;;8.70;99.90;;;;;;5056608;28;21038;-52
2022/04/25 06:20:17;;;;;;;14.13;10.90;;;8.80;99.90;;;;;;5060129;28;20230;-52
2022/04/25 06:22:55;;;;;;;20.07;11.50;;;8.70;99.90;;;;;;5056096;28;20261;-55
2022/04/25 06:25:24;;;;;;;16.50;10.70;;;8.70;99.90;;;;;;5055997;28;20277;-53
2022/04/25 06:27:51;;;;;;;13.63;10.20;;;8.90;99.90;;;;;;5050151;28;20210;-54
2022/04/25 06:30:23;;;;;;;20.50;11.40;;;9.10;99.90;;;;;;5058555;28;20197;-52
2022/04/25 06:32:51;;;;;;;14.63;10.17;;;9.10;99.90;;;;;;5052117;28;20201;-54
2022/04/25 06:35:20;;;;;;;14.03;10.50;;;9.10;99.90;;;;;;5055595;28;20693;-52
2022/04/25 06:37:48;;;;;;;17.47;12.60;;;9.10;99.90;;;;;;5053828;28;20240;-53
2022/04/25 06:40:15;;;;;;;14.33;10.73;;;9.00;99.90;;;;;;5058259;28;20197;-54
2022/04/25 06:42:42;;;;;;;18.43;11.93;;;9.10;99.90;;;;;;5055238;28;20232;-53
2022/04/25 06:45:09;;;;;;;17.20;11.77;;;9.10;99.90;;;;;;5051950;28;20257;-52
2022/04/25 06:47:36;;;;;;;15.40;10.83;;;9.10;99.90;;;;;;5065017;28;20281;-55
2022/04/25 06:50:03;;;;;;;14.93;11.47;;;9.00;99.90;;;;;;5051470;28;20661;-54
2022/04/25 06:52:30;;;;;;;18.13;12.63;;;9.10;99.90;;;;;;5049349;28;20736;-54
2022/04/25 06:54:57;;;;;;;15.67;12.07;;;9.10;99.90;;;;;;5053416;28;20382;-52
2022/04/25 06:57:24;;;;;;;18.37;11.57;;;9.20;99.90;;;;;;5055818;28;20220;-54
2022/04/25 06:59:51;;;;;;;15.87;11.97;;;9.30;99.90;;;;;;5060274;28;20537;-52
2022/04/25 07:02:18;;;;;;;16.43;12.20;;;9.30;99.90;;;;;;5050251;28;20200;-52
2022/04/25 07:04:46;;;;;;;17.70;12.20;;;9.30;99.90;;;;;;5056547;28;20193;-52
2022/04/25 07:07:13;;;;;;;14.63;11.43;;;9.10;99.90;;;;;;5056294;28;20341;-54
2022/04/25 07:09:40;;;;;;;17.50;11.30;;;9.10;99.90;;;;;;5052092;28;20194;-52
2022/04/25 07:12:07;;;;;;;15.57;11.67;;;9.00;99.90;;;;;;5059883;28;20307;-52
2022/04/25 07:14:34;;;;;;;18.43;12.20;;;9.00;99.90;;;;;;5064192;28;20343;-53
2022/04/25 07:17:03;;;;;;;17.13;12.27;;;9.10;99.90;;;;;;5061034;28;20662;-51
2022/04/25 07:19:30;;;;;;;19.10;13.37;;;9.10;99.90;;;;;;5060824;28;20209;-56
2022/04/25 07:30:15;;;;;;;16.67;12.13;;;9.20;99.90;;;;;;5067022;28;20262;-53
2022/04/25 07:32:42;;;;;;;18.03;13.30;;;9.40;99.90;;;;;;5058064;28;20248;-57
2022/04/25 07:35:10;;;;;;;22.33;13.43;;;9.60;99.90;;;;;;5060316;28;20677;-54
2022/04/25 07:37:37;;;;;;;23.87;13.60;;;9.50;99.90;;;;;;5056006;28;27599;-54
2022/04/25 07:40:06;;;;;;;19.67;15.10;;;9.60;99.90;;;;;;5057770;28;20232;-54
2022/04/25 07:42:33;;;;;;;17.70;13.73;;;9.60;99.90;;;;;;5052654;28;20238;-53
2022/04/25 07:45:02;;;;;;;17.60;13.17;;;9.40;99.90;;;;;;5053282;28;20385;-53
2022/04/25 07:47:28;;;;;;;20.47;14.10;;;9.30;99.90;;;;;;5051246;28;20241;-55
2022/04/25 07:49:55;;;;;;;17.60;13.67;;;9.30;99.90;;;;;;5053605;28;20201;-60
2022/04/25 07:52:22;;;;;;;20.53;14.37;;;9.20;99.90;;;;;;5048750;28;20251;-61
2022/04/25 07:54:51;;;;;;;22.13;14.67;;;9.10;99.90;;;;;;5056984;28;20251;-53
2022/04/25 07:57:23;;;;;;;21.93;14.43;;;9.00;99.90;;;;;;5058056;28;20673;-53
2022/04/25 07:59:50;;;;;;;18.50;13.80;;;8.90;99.90;;;;;;5049852;28;20295;-55
2022/04/25 08:02:17;;;;;;;21.33;15.17;;;9.00;99.90;;;;;;5051284;28;20296;-53
2022/04/25 08:04:48;;;;;;;23.97;15.80;;;8.90;99.90;;;;;;5052642;28;20659;-52
2022/04/25 08:07:16;;;;;;;22.83;15.53;;;9.00;99.90;;;;;;5058628;28;20194;-53
2022/04/25 08:09:42;;;;;;;22.23;16.17;;;9.10;99.90;;;;;;5051369;28;20191;-55
2022/04/25 08:20:34;;;;;;;22.73;16.00;;;9.30;99.90;;;;;;5058280;28;20206;-56
2022/04/25 08:23:04;;;;;;;22.53;16.47;;;9.20;99.90;;;;;;5062683;28;20280;-53
2022/04/25 08:25:31;;;;;;;21.73;15.93;;;9.30;99.90;;;;;;5063934;28;20225;-53
2022/04/25 08:27:59;;;;;;;23.63;16.13;;;9.20;99.90;;;;;;5060899;28;20272;-55
2022/04/25 08:30:26;;;;;;;23.47;15.93;;;9.20;99.90;;;;;;5053727;28;20223;-53
2022/04/25 08:32:55;;;;;;;22.43;16.27;;;9.30;99.90;;;;;;5057753;28;20204;-54
2022/04/25 08:35:22;;;;;;;21.60;15.90;;;9.10;99.90;;;;;;5055784;28;20294;-55
2022/04/25 08:37:49;;;;;;;19.67;15.83;;;9.30;99.90;;;;;;5061488;28;20249;-54
2022/04/25 08:40:16;;;;;;;22.30;15.77;;;9.30;99.90;;;;;;5057130;28;20202;-52
2022/04/25 08:42:44;;;;;;;22.47;15.43;;;9.30;99.90;;;;;;5061804;28;20232;-54
2022/04/25 08:45:13;;;;;;;21.13;15.87;;;9.20;99.90;;;;;;5065363;28;20552;-52
2022/04/25 08:47:53;;;;;;;20.30;14.10;;;9.30;99.90;;;;;;5058611;28;20197;-53
2022/04/25 08:50:21;;;;;;;23.60;16.20;;;9.30;99.90;;;;;;5058415;28;20277;-54
2022/04/25 08:52:49;;;;;;;20.27;14.40;;;9.30;99.90;;;;;;5055893;28;20202;-54
2022/04/25 08:55:17;;;;;;;19.60;14.67;;;9.20;99.90;;;;;;5056708;28;20343;-53
2022/04/25 08:57:45;;;;;;;20.20;15.27;;;9.30;99.90;;;;;;5046971;28;20301;-53
2022/04/25 09:00:15;;;;;;;21.20;15.27;;;9.40;99.90;;;;;;5051256;28;20248;-54
2022/04/25 09:02:44;;;;;;;20.97;16.00;;;9.40;99.90;;;;;;5053156;28;20260;-53
2022/04/25 09:05:12;;;;;;;18.03;14.27;;;9.50;99.90;;;;;;5062332;28;20586;-55
2022/04/25 09:07:41;;;;;;;22.60;14.20;;;9.40;99.90;;;;;;5061707;28;20230;-55
2022/04/25 09:10:11;;;;;;;21.43;14.73;;;9.40;99.90;;;;;;5060384;28;20228;-56
2022/04/25 09:12:40;;;;;;;16.63;13.27;;;9.40;99.90;;;;;;5049278;28;20693;-55
2022/04/25 09:15:20;;;;;;;18.70;14.50;;;9.40;99.90;;;;;;5053109;28;20205;-53
2022/04/25 09:17:55;;;;;;;19.17;13.97;;;9.60;99.90;;;;;;5056905;28;20212;-53
2022/04/25 09:20:24;;;;;;;16.23;13.30;;;9.70;99.90;;;;;;5057309;28;20478;-52
2022/04/25 09:22:51;;;;;;;18.43;13.97;;;9.70;99.90;;;;;;5060665;28;20767;-52
2022/04/25 09:25:18;;;;;;;17.00;12.57;;;9.90;99.90;;;;;;5048962;28;20224;-51
2022/04/25 09:28:12;;;;;;;15.27;11.80;;;10.00;99.90;;;;;;5062229;28;20228;-59
2022/04/25 09:31:00;;;;;;;15.30;12.23;;;9.90;99.90;;;;;;5055542;28;20203;-53
2022/04/25 09:33:28;;;;;;;14.13;10.97;;;9.70;99.90;;;;;;5053505;28;20229;-51
2022/04/25 09:35:56;;;;;;;17.00;11.57;;;9.90;99.90;;;;;;5059738;28;20206;-54
2022/04/25 09:38:38;;;;;;;14.73;11.33;;;9.90;99.90;;;;;;5056742;28;20215;-52
2022/04/25 09:41:15;;;;;;;11.30;9.70;;;10.10;99.90;;;;;;5060871;28;20218;-51
2022/04/25 09:43:44;;;;;;;13.17;10.57;;;10.30;99.90;;;;;;5054347;28;20254;-54
2022/04/25 09:46:13;;;;;;;12.40;10.40;;;10.20;99.90;;;;;;5058540;28;20186;-52
2022/04/25 09:49:01;;;;;;;13.13;10.83;;;10.20;99.90;;;;;;5054636;28;20207;-51
2022/04/25 09:51:28;;;;;;;14.93;11.33;;;10.30;99.90;;;;;;5052315;28;20209;-52
2022/04/25 09:53:55;;;;;;;13.07;11.07;;;10.40;99.90;;;;;;5056566;28;20244;-51
2022/04/25 09:56:23;;;;;;;14.67;11.90;;;10.50;99.90;;;;;;5054507;28;20261;-52
2022/04/25 09:59:01;;;;;;;13.97;10.33;;;10.50;99.90;;;;;;5054578;28;20220;-52
2022/04/25 10:01:30;;;;;;;13.73;10.80;;;10.10;99.90;;;;;;5050299;28;20244;-52
2022/04/25 10:03:57;;;;;;;14.10;11.03;;;10.20;99.90;;;;;;5053320;28;20199;-52
2022/04/25 10:06:27;;;;;;;13.17;11.30;;;10.20;99.90;;;;;;5055536;28;20200;-51
2022/04/25 10:08:54;;;;;;;12.80;10.17;;;10.40;99.90;;;;;;5057546;28;20678;-54
2022/04/25 10:11:24;;;;;;;12.50;10.57;;;10.30;99.90;;;;;;5054537;28;20230;-53
2022/04/25 10:13:51;;;;;;;14.13;11.00;;;10.00;99.90;;;;;;5052801;28;20735;-53
2022/04/25 10:16:22;;;;;;;13.27;10.03;;;10.00;99.90;;;;;;5050550;28;20681;-53
2022/04/25 10:18:51;;;;;;;13.57;10.93;;;9.70;99.90;;;;;;5049875;28;20308;-55
2022/04/25 10:21:18;;;;;;;16.33;10.10;;;9.60;99.90;;;;;;5033215;28;20198;-55
2022/04/25 10:23:45;;;;;;;12.03;10.07;;;9.60;99.90;;;;;;5053522;28;20211;-53
2022/04/25 10:26:12;;;;;;;13.20;10.17;;;9.90;99.90;;;;;;5052877;28;20546;-53
2022/04/25 10:28:57;;;;;;;12.37;10.10;;;9.90;99.90;;;;;;5053140;28;20293;-50
2022/04/25 10:31:28;;;;;;;13.20;10.50;;;9.90;99.90;;;;;;5053247;28;20202;-52
2022/04/25 10:33:58;;;;;;;14.90;10.37;;;9.90;99.90;;;;;;5051765;28;20230;-52
2022/04/25 10:36:39;;;;;;;13.80;10.20;;;9.80;99.90;;;;;;5061154;28;20251;-54
2022/04/25 10:39:19;;;;;;;12.43;10.07;;;9.80;99.90;;;;;;5050718;28;20256;-52
2022/04/25 10:44:42;;;;;;;12.97;10.90;;;9.80;99.90;;;;;;5053496;28;20189;-52
2022/04/25 10:47:28;;;;;;;14.60;11.00;;;9.90;99.90;;;;;;5057048;28;20196;-51
2022/04/25 10:49:56;;;;;;;15.03;11.27;;;10.20;99.90;;;;;;5051035;28;20230;-52
2022/04/25 10:52:42;;;;;;;13.20;11.30;;;10.10;99.90;;;;;;5056429;28;20203;-52
2022/04/25 10:55:35;;;;;;;15.30;12.07;;;10.10;99.90;;;;;;5054034;28;20218;-52
2022/04/25 10:58:01;;;;;;;15.87;12.57;;;10.00;99.90;;;;;;5054030;28;21392;-54
2022/04/25 11:00:40;;;;;;;17.30;12.83;;;10.10;99.90;;;;;;5054998;28;20237;-53
2022/04/25 11:03:20;;;;;;;18.20;11.87;;;10.20;99.90;;;;;;5054405;28;20647;-52
2022/04/25 11:05:55;;;;;;;15.10;11.80;;;9.90;99.90;;;;;;5051307;28;20901;-52
2022/04/25 11:08:28;;;;;;;14.80;12.40;;;10.10;99.90;;;;;;5053531;28;20200;-52
2022/04/25 11:10:58;;;;;;;18.90;13.57;;;10.20;99.90;;;;;;5061039;28;20299;-52
2022/04/25 11:13:28;;;;;;;18.80;12.97;;;10.30;99.90;;;;;;5050911;28;20199;-53
2022/04/25 11:16:21;;;;;;;18.93;12.90;;;10.30;99.90;;;;;;5051196;28;20300;-53
2022/04/25 11:19:14;;;;;;;19.50;13.83;;;10.40;99.90;;;;;;5035395;28;20735;-52
2022/04/25 11:21:45;;;;;;;21.50;13.83;;;10.30;99.90;;;;;;5057838;28;20233;-51
2022/04/25 11:24:42;;;;;;;18.13;13.63;;;10.30;99.90;;;;;;5057352;28;20232;-51
2022/04/25 11:27:12;;;;;;;18.17;13.03;;;10.40;99.90;;;;;;5041123;28;20202;-52
2022/04/25 11:29:45;;;;;;;17.07;14.10;;;10.30;99.90;;;;;;5051173;28;20217;-51
2022/04/25 11:32:26;;;;;;;19.70;13.73;;;10.20;99.90;;;;;;5056381;28;20689;-51
2022/04/25 11:34:58;;;;;;;21.47;13.87;;;10.20;99.90;;;;;;5054747;28;20241;-51
2022/04/25 11:37:27;;;;;;;16.93;13.57;;;10.20;99.90;;;;;;5058477;28;20262;-53
2022/04/25 11:39:55;;;;;;;16.53;12.93;;;10.30;99.90;;;;;;5054069;28;20229;-50
2022/04/25 11:42:27;;;;;;;20.37;14.40;;;10.10;99.90;;;;;;5060530;28;20724;-52
2022/04/25 11:44:55;;;;;;;17.13;13.50;;;10.20;99.90;;;;;;5057547;28;20285;-54
2022/04/25 11:47:23;;;;;;;20.57;14.83;;;10.40;99.90;;;;;;5059296;28;20709;-53
2022/04/25 11:50:02;;;;;;;22.47;14.83;;;10.50;99.90;;;;;;5056709;28;20233;-50
2022/04/25 11:52:29;;;;;;;21.03;14.73;;;10.50;99.90;;;;;;5054418;28;20209;-52
2022/04/25 11:54:56;;;;;;;17.70;13.30;;;10.40;99.90;;;;;;5056223;28;20204;-52
2022/04/25 11:57:25;;;;;;;21.40;15.13;;;10.20;99.90;;;;;;5059359;28;20625;-52
2022/04/25 12:00:24;;;;;;;21.67;15.27;;;10.40;99.90;;;;;;5059013;28;20214;-54
2022/04/25 12:02:51;;;;;;;18.93;15.10;;;10.50;99.90;;;;;;5007860;28;20285;-52
2022/04/25 12:05:31;;;;;;;21.33;14.83;;;10.60;99.90;;;;;;5055746;28;20317;-53
2022/04/25 12:16:14;;;;;;;22.37;14.13;;;10.50;99.90;;;;;;5053661;28;20719;-51
2022/04/25 12:18:50;;;;;;;21.10;14.33;;;10.50;99.90;;;;;;5057044;28;20233;-51
2022/04/25 12:21:18;;;;;;;22.33;15.63;;;10.60;99.90;;;;;;5057061;28;20300;-51
2022/04/25 12:23:46;;;;;;;21.90;15.63;;;10.70;99.90;;;;;;5051178;28;20237;-53
2022/04/25 12:26:19;;;;;;;21.70;15.23;;;10.60;1.00;;;;;;5059437;28;20205;-54
2022/04/25 12:28:59;;;;;;;20.10;13.83;;;10.50;1.00;;;;;;5059843;28;20198;-52
2022/04/25 12:31:28;;;;;;;20.83;14.37;;;10.60;1.00;;;;;;5056845;28;20599;-51
2022/04/25 12:34:04;;;;;;;19.80;14.63;;;10.60;15.80;;;;;;5054576;28;20866;-55
2022/04/25 12:36:32;;;;;;;21.17;14.40;;;10.80;1.00;;;;;;5057276;28;20284;-52
2022/04/25 12:39:10;;;;;;;19.47;14.10;;;10.60;1.00;;;;;;5059771;28;20749;-51
2022/04/25 12:41:40;;;;;;;24.30;15.50;;;10.60;1.00;;;;;;5036055;28;20247;-53
2022/04/25 12:44:10;;;;;;;17.70;13.33;;;10.80;90.20;;;;;;5051885;28;20697;-51
2022/04/25 12:46:41;;;;;;;22.13;14.63;;;10.80;1.00;;;;;;5059151;28;20581;-52
2022/04/25 12:49:08;;;;;;;17.93;13.77;;;11.00;1.00;;;;;;5053942;28;20245;-51
2022/04/25 12:51:36;;;;;;;20.80;13.80;;;11.20;99.90;;;;;;5054144;28;20271;-52
2022/04/25 12:54:06;;;;;;;21.00;13.77;;;11.00;99.90;;;;;;5058783;28;20246;-52
2022/04/25 12:56:35;;;;;;;19.73;13.03;;;10.80;99.90;;;;;;5061784;28;20195;-53
2022/04/25 12:59:02;;;;;;;19.03;13.87;;;11.00;1.00;;;;;;5054974;28;20305;-53
2022/04/25 13:01:31;;;;;;;18.57;13.37;;;11.10;99.90;;;;;;5057239;28;20256;-52
2022/04/25 13:04:04;;;;;;;17.90;12.37;;;11.20;1.00;;;;;;5054552;28;20222;-51
2022/04/25 13:06:31;;;;;;;15.50;12.77;;;11.50;1.00;;;;;;5054564;28;20202;-50
2022/04/25 13:08:58;;;;;;;19.07;14.30;;;11.70;1.00;;;;;;5056535;28;20478;-53
2022/04/25 13:11:45;;;;;;;17.90;13.73;;;11.70;1.00;;;;;;5059446;28;20304;-55
2022/04/25 13:14:12;;;;;;;19.33;13.90;;;11.30;91.40;;;;;;5059307;28;20276;-52
2022/04/25 13:16:39;;;;;;;20.07;13.87;;;11.00;31.50;;;;;;5057983;28;20231;-52
2022/04/25 13:19:05;;;;;;;21.13;13.60;;;10.90;99.90;;;;;;5039261;28;20214;-53
2022/04/25 13:21:36;;;;;;;20.43;15.50;;;10.60;1.00;;;;;;5059749;28;20290;-53
2022/04/25 13:24:04;;;;;;;20.30;14.73;;;10.60;3.30;;;;;;5054765;28;20205;-51
2022/04/25 13:26:30;;;;;;;19.97;14.67;;;10.80;99.90;;;;;;5055992;28;20196;-52
2022/04/25 13:28:57;;;;;;;18.30;14.67;;;10.70;1.00;;;;;;5052678;28;20289;-55